Time;durP1;ratioP1;P1;durP2;ratioP2;P2;SDS_P1;SDS_P2;PMS_P1;PMS_P2;Temp;Humidity;BMP_temperature;BMP_pressure;BME280_temperature;BME280_humidity;BME280_pressure;Samples;Min_cycle;Max_cycle;Signal;HPM_P1;HPM_P2
2023/08/28 00:00:00;;;;;;;2.22;1.60;;;;;11.90;93788.00;;;;7396121;19;20197;-84
2023/08/28 00:02:36;;;;;;;4.15;1.70;;;;;11.90;93781.00;;;;7394928;19;20249;-85
2023/08/28 00:05:04;;;;;;;3.63;1.70;;;;;11.90;93773.00;;;;7398021;19;20137;-84
2023/08/28 00:07:41;;;;;;;5.57;2.30;;;;;11.90;93769.00;;;;7396600;19;20132;-84
2023/08/28 00:10:21;;;;;;;8.65;1.88;;;;;11.90;93752.00;;;;7395893;19;20675;-85
2023/08/28 00:12:56;;;;;;;3.42;1.48;;;;;11.90;93747.00;;;;7396669;19;20145;-84
2023/08/28 00:15:24;;;;;;;3.75;1.40;;;;;11.90;93745.00;;;;7399985;19;20615;-84
2023/08/28 00:17:58;;;;;;;3.92;1.50;;;;;11.90;93746.00;;;;7399341;19;20212;-85
2023/08/28 00:20:28;;;;;;;4.65;1.80;;;;;11.90;93745.00;;;;7402291;19;20136;-84
2023/08/28 00:23:03;;;;;;;2.00;1.55;;;;;12.00;93747.00;;;;7403011;19;20140;-84
2023/08/28 00:25:33;;;;;;;3.25;1.55;;;;;12.00;93757.00;;;;7403901;19;20137;-85
2023/08/28 00:28:08;;;;;;;19.23;1.70;;;;;12.10;93747.00;;;;7404550;19;20156;-84
2023/08/28 00:30:42;;;;;;;2.97;1.70;;;;;12.00;93735.00;;;;7404777;19;20587;-84
2023/08/28 00:33:10;;;;;;;3.35;1.60;;;;;12.00;93731.00;;;;7401204;19;20486;-86
2023/08/28 00:35:45;;;;;;;1.85;1.55;;;;;12.10;93736.00;;;;7402828;19;20168;-87
2023/08/28 00:38:14;;;;;;;3.47;1.90;;;;;12.00;93746.00;;;;7402557;19;20133;-85
2023/08/28 00:40:54;;;;;;;3.00;1.60;;;;;12.00;93739.00;;;;7402849;19;20476;-85
2023/08/28 00:43:24;;;;;;;2.50;1.63;;;;;12.20;93750.00;;;;7405512;19;20133;-84
2023/08/28 00:45:58;;;;;;;1.70;1.23;;;;;12.10;93762.00;;;;7402553;19;20508;-85
2023/08/28 00:48:27;;;;;;;1.60;1.40;;;;;12.20;93766.00;;;;7402353;19;20135;-84
2023/08/28 00:51:04;;;;;;;2.95;1.90;;;;;12.20;93758.00;;;;7404829;19;20529;-84
2023/08/28 00:53:35;;;;;;;1.52;1.42;;;;;12.10;93760.00;;;;7401764;19;20699;-84
2023/08/28 00:56:09;;;;;;;6.45;1.90;;;;;12.10;93759.00;;;;7404096;19;20449;-86
2023/08/28 00:58:41;;;;;;;4.68;1.77;;;;;12.00;93750.00;;;;7401624;19;20137;-85
2023/08/28 01:01:16;;;;;;;2.85;1.20;;;;;12.10;93747.00;;;;7401326;19;20129;-87
2023/08/28 01:03:51;;;;;;;3.65;1.55;;;;;12.00;93746.00;;;;7404269;19;20132;-88
2023/08/28 01:06:53;;;;;;;2.58;1.33;;;;;12.20;93750.00;;;;7404577;19;20218;-88
2023/08/28 01:09:58;;;;;;;2.83;1.48;;;;;12.10;93750.00;;;;7404404;19;20144;-88
2023/08/28 01:12:51;;;;;;;3.80;1.52;;;;;12.20;93750.00;;;;7405547;19;20144;-87
2023/08/28 01:15:21;;;;;;;2.05;1.45;;;;;12.00;93750.00;;;;7406791;19;20136;-87
2023/08/28 01:18:02;;;;;;;6.25;1.60;;;;;12.00;93760.00;;;;7403262;19;20132;-88
2023/08/28 01:20:33;;;;;;;2.10;1.33;;;;;12.10;93762.00;;;;7404733;19;20145;-87
2023/08/28 01:23:23;;;;;;;2.15;1.25;;;;;12.10;93758.00;;;;7406293;19;20584;-88
2023/08/28 01:25:54;;;;;;;1.63;1.33;;;;;12.10;93763.00;;;;7405326;19;20608;-87
2023/08/28 01:28:31;;;;;;;1.80;1.40;;;;;12.00;93766.00;;;;7406341;19;20180;-88
2023/08/28 01:30:59;;;;;;;3.17;1.30;;;;;12.10;93773.00;;;;7407231;19;20542;-87
2023/08/28 01:33:35;;;;;;;5.22;1.30;;;;;12.00;93769.00;;;;7407432;19;20611;-87
2023/08/28 01:36:41;;;;;;;1.60;1.50;;;;;12.10;93758.00;;;;7400551;19;20648;-87
2023/08/28 01:39:23;;;;;;;2.25;1.33;;;;;12.00;93765.00;;;;7401819;19;20743;-87
2023/08/28 01:41:55;;;;;;;5.75;1.60;;;;;11.90;93758.00;;;;7404624;19;20503;-87
2023/08/28 01:44:31;;;;;;;2.13;1.25;;;;;11.80;93751.00;;;;7407257;19;20149;-87
2023/08/28 01:46:59;;;;;;;2.47;1.40;;;;;11.90;93752.00;;;;7404870;19;20429;-88
2023/08/28 01:49:34;;;;;;;2.95;1.48;;;;;11.90;93738.00;;;;7405316;19;20124;-87
2023/08/28 01:52:02;;;;;;;3.92;1.35;;;;;12.00;93743.00;;;;7406037;19;20156;-87
2023/08/28 01:54:36;;;;;;;3.83;1.45;;;;;11.90;93750.00;;;;7405318;19;20128;-87
2023/08/28 01:57:05;;;;;;;2.25;1.35;;;;;11.90;93741.00;;;;7406297;19;20602;-87
2023/08/28 01:59:42;;;;;;;6.25;1.90;;;;;11.90;93742.00;;;;7407425;19;20140;-88
2023/08/28 02:02:17;;;;;;;3.63;1.58;;;;;11.90;93740.00;;;;7403799;19;20175;-87
2023/08/28 02:04:51;;;;;;;3.35;1.50;;;;;11.90;93747.00;;;;7405508;19;20132;-86
2023/08/28 02:07:25;;;;;;;1.90;1.30;;;;;11.90;93740.00;;;;7407093;19;20153;-87
2023/08/28 02:10:06;;;;;;;2.25;1.40;;;;;11.90;93734.00;;;;7402912;19;20148;-87
2023/08/28 02:12:40;;;;;;;4.25;1.50;;;;;11.90;93718.00;;;;7402333;19;20148;-87
2023/08/28 02:15:15;;;;;;;3.83;1.48;;;;;11.90;93719.00;;;;7404280;19;20133;-87
2023/08/28 02:17:43;;;;;;;2.08;1.50;;;;;11.90;93717.00;;;;7404024;19;20121;-87
2023/08/28 02:20:10;;;;;;;4.13;1.92;;;;;11.80;93706.00;;;;7401247;19;20137;-87
2023/08/28 02:22:44;;;;;;;5.43;1.48;;;;;11.80;93696.00;;;;7403526;19;20219;-88
2023/08/28 02:25:12;;;;;;;5.30;1.70;;;;;11.90;93702.00;;;;7404593;19;20125;-87
2023/08/28 02:27:51;;;;;;;1.95;1.35;;;;;11.90;93689.00;;;;7404435;19;20595;-87
2023/08/28 02:30:19;;;;;;;3.55;1.58;;;;;11.90;93680.00;;;;7404980;19;20133;-87
2023/08/28 02:32:53;;;;;;;4.47;1.83;;;;;11.80;93683.00;;;;7405103;19;20136;-87
2023/08/28 02:35:25;;;;;;;5.95;1.63;;;;;11.90;93683.00;;;;7403589;19;20625;-87
2023/08/28 02:38:01;;;;;;;2.20;1.50;;;;;11.90;93689.00;;;;7402590;19;20192;-87
2023/08/28 02:40:29;;;;;;;3.25;1.50;;;;;11.90;93688.00;;;;7402419;19;20145;-87
2023/08/28 02:43:07;;;;;;;1.48;1.17;;;;;11.90;93689.00;;;;7403911;19;20124;-87
2023/08/28 02:45:45;;;;;;;4.38;1.30;;;;;11.80;93683.00;;;;7406064;19;20151;-87
2023/08/28 02:48:14;;;;;;;2.45;1.40;;;;;11.70;93681.00;;;;7402503;19;20144;-88
2023/08/28 02:50:52;;;;;;;4.95;1.45;;;;;11.70;93680.00;;;;7402890;19;20148;-87
2023/08/28 02:53:26;;;;;;;2.00;1.42;;;;;11.70;93689.00;;;;7402614;19;20180;-87
2023/08/28 02:56:33;;;;;;;3.05;1.77;;;;;11.60;93684.00;;;;7400318;19;20145;-87
2023/08/28 02:59:07;;;;;;;3.85;1.50;;;;;11.70;93694.00;;;;7402031;19;20133;-86
2023/08/28 03:01:43;;;;;;;3.50;1.60;;;;;11.60;93694.00;;;;7402443;19;20148;-87
2023/08/28 03:04:18;;;;;;;3.08;1.30;;;;;11.60;93689.00;;;;7399910;19;20147;-87
2023/08/28 03:06:52;;;;;;;4.60;1.52;;;;;11.60;93686.00;;;;7401976;19;20140;-87
2023/08/28 03:09:21;;;;;;;2.78;1.52;;;;;11.60;93679.00;;;;7400395;19;20133;-87
2023/08/28 03:12:03;;;;;;;3.45;1.40;;;;;11.60;93678.00;;;;7400774;19;20150;-87
2023/08/28 03:14:37;;;;;;;4.65;1.70;;;;;11.60;93675.00;;;;7402905;19;20619;-86
2023/08/28 03:17:06;;;;;;;4.65;1.50;;;;;11.60;93670.00;;;;7397300;19;20200;-87
2023/08/28 03:19:42;;;;;;;2.75;1.60;;;;;11.70;93671.00;;;;7395766;19;20128;-84
2023/08/28 03:22:18;;;;;;;2.03;1.55;;;;;11.70;93667.00;;;;7395937;19;20454;-84
2023/08/28 03:24:55;;;;;;;4.18;1.45;;;;;11.70;93659.00;;;;7399297;19;20186;-85
2023/08/28 03:27:23;;;;;;;2.25;1.42;;;;;11.70;93651.00;;;;7400032;19;20616;-85
2023/08/28 03:29:57;;;;;;;5.70;1.63;;;;;11.60;93646.00;;;;7399565;19;20129;-85
2023/08/28 03:32:27;;;;;;;3.95;1.98;;;;;11.60;93656.00;;;;7400404;19;20636;-84
2023/08/28 03:35:01;;;;;;;2.70;1.63;;;;;11.60;93657.00;;;;7397638;19;20581;-84
2023/08/28 03:37:35;;;;;;;5.80;1.88;;;;;11.60;93655.00;;;;7399588;19;20161;-84
2023/08/28 03:40:09;;;;;;;2.78;1.88;;;;;11.60;93650.00;;;;7399375;19;20606;-84
2023/08/28 03:42:37;;;;;;;3.15;1.90;;;;;11.60;93653.00;;;;7398516;19;20141;-84
2023/08/28 03:45:12;;;;;;;5.50;2.47;;;;;11.50;93653.00;;;;7399258;19;20137;-86
2023/08/28 03:47:39;;;;;;;4.05;1.80;;;;;11.50;93659.00;;;;7399911;19;20145;-85
2023/08/28 03:50:07;;;;;;;4.30;1.65;;;;;11.50;93665.00;;;;7403490;19;20137;-84
2023/08/28 03:52:42;;;;;;;2.55;1.90;;;;;11.50;93667.00;;;;7404425;19;20152;-85
2023/08/28 03:55:10;;;;;;;2.20;1.80;;;;;11.50;93675.00;;;;7405843;19;20158;-84
2023/08/28 03:57:45;;;;;;;3.08;1.90;;;;;11.60;93673.00;;;;7405025;19;20140;-85
2023/08/28 04:00:14;;;;;;;3.20;1.85;;;;;11.60;93671.00;;;;7407265;19;20611;-84
2023/08/28 04:02:46;;;;;;;2.53;1.55;;;;;11.60;93668.00;;;;7402710;19;20652;-85
2023/08/28 04:05:21;;;;;;;4.57;1.70;;;;;11.50;93675.00;;;;7405563;19;20151;-85
2023/08/28 04:07:55;;;;;;;3.83;2.00;;;;;11.50;93680.00;;;;7405846;19;20478;-84
2023/08/28 04:10:31;;;;;;;2.75;2.17;;;;;11.50;93681.00;;;;7404354;19;20141;-85
2023/08/28 04:13:12;;;;;;;4.07;1.90;;;;;11.40;93674.00;;;;7403945;19;20148;-84
2023/08/28 04:15:40;;;;;;;4.10;1.75;;;;;11.50;93674.00;;;;7403607;19;20148;-85
2023/08/28 04:18:17;;;;;;;3.03;2.25;;;;;11.50;93672.00;;;;7403504;19;20157;-84
2023/08/28 04:20:47;;;;;;;4.55;2.20;;;;;11.40;93673.00;;;;7405095;19;20162;-84
2023/08/28 04:23:22;;;;;;;2.83;2.15;;;;;11.50;93673.00;;;;7406268;19;20524;-85
2023/08/28 04:25:49;;;;;;;2.83;1.98;;;;;11.50;93660.00;;;;7406688;19;20488;-84
2023/08/28 04:28:24;;;;;;;3.45;1.75;;;;;11.50;93669.00;;;;7404426;19;21172;-84
2023/08/28 04:30:52;;;;;;;2.25;1.83;;;;;11.50;93655.00;;;;7405247;19;20168;-87
2023/08/28 04:33:20;;;;;;;2.92;2.15;;;;;11.50;93656.00;;;;7404971;19;20501;-86
2023/08/28 04:35:54;;;;;;;2.10;1.90;;;;;11.40;93650.00;;;;7406739;19;20163;-86
2023/08/28 04:38:23;;;;;;;5.30;2.05;;;;;11.40;93650.00;;;;7406485;19;20144;-85
2023/08/28 04:40:52;;;;;;;3.33;2.10;;;;;11.40;93635.00;;;;7408621;19;20139;-86
2023/08/28 04:43:26;;;;;;;3.67;2.00;;;;;11.40;93647.00;;;;7406771;19;20750;-86
2023/08/28 04:46:01;;;;;;;4.10;1.90;;;;;11.40;93632.00;;;;7409095;19;20139;-86
2023/08/28 04:48:35;;;;;;;5.90;2.45;;;;;11.40;93643.00;;;;7407178;19;20163;-86
2023/08/28 04:51:04;;;;;;;2.40;2.20;;;;;11.40;93644.00;;;;7407426;19;20147;-86
2023/08/28 04:53:38;;;;;;;3.45;2.53;;;;;11.40;93650.00;;;;7408332;19;20602;-87
2023/08/28 04:56:06;;;;;;;8.52;2.53;;;;;11.50;93644.00;;;;7405461;19;20152;-86
2023/08/28 04:58:42;;;;;;;6.45;2.50;;;;;11.40;93634.00;;;;7405835;19;20139;-86
2023/08/28 05:01:15;;;;;;;5.00;2.67;;;;;11.50;93636.00;;;;7401289;19;20168;-86
2023/08/28 05:03:53;;;;;;;4.72;2.38;;;;;11.40;93637.00;;;;7404967;19;20207;-83
2023/08/28 05:06:21;;;;;;;4.22;2.28;;;;;11.40;93639.00;;;;7409261;19;20133;-83
2023/08/28 05:08:55;;;;;;;3.00;2.60;;;;;11.50;93638.00;;;;7407441;19;20141;-83
2023/08/28 05:11:30;;;;;;;3.72;1.98;;;;;11.50;93633.00;;;;7405315;19;20652;-83
2023/08/28 05:14:04;;;;;;;7.03;2.20;;;;;11.60;93643.00;;;;7405368;19;20158;-83
2023/08/28 05:16:32;;;;;;;3.03;2.13;;;;;11.50;93631.00;;;;7398750;19;20144;-83
2023/08/28 05:19:00;;;;;;;2.30;1.92;;;;;11.50;93637.00;;;;7396458;19;20168;-82
2023/08/28 05:21:35;;;;;;;7.22;2.53;;;;;11.50;93633.00;;;;7398227;19;20125;-83
2023/08/28 05:24:08;;;;;;;4.95;2.30;;;;;11.50;93642.00;;;;7399007;19;20125;-82
2023/08/28 05:26:42;;;;;;;4.95;2.20;;;;;11.40;93638.00;;;;7396889;19;20165;-84
2023/08/28 05:29:13;;;;;;;3.10;2.30;;;;;11.40;93640.00;;;;7395539;19;20632;-84
2023/08/28 05:31:42;;;;;;;4.38;2.28;;;;;11.40;93633.00;;;;7397930;19;20152;-83
2023/08/28 05:34:16;;;;;;;4.03;3.10;;;;;11.50;93633.00;;;;7396309;19;20132;-83
2023/08/28 05:36:44;;;;;;;4.78;2.80;;;;;11.50;93643.00;;;;7397080;19;20133;-84
2023/08/28 05:39:18;;;;;;;3.85;1.90;;;;;11.50;93636.00;;;;7394948;19;20133;-84
2023/08/28 05:41:48;;;;;;;3.05;2.42;;;;;11.50;93642.00;;;;7393253;19;20140;-82
2023/08/28 05:44:22;;;;;;;3.42;2.13;;;;;11.50;93638.00;;;;7394160;19;20142;-82
2023/08/28 05:46:58;;;;;;;7.03;2.30;;;;;11.60;93636.00;;;;7394452;19;20470;-83
2023/08/28 05:49:31;;;;;;;3.63;2.58;;;;;11.40;93632.00;;;;7395107;19;20588;-84
2023/08/28 05:52:05;;;;;;;4.32;2.30;;;;;11.40;93642.00;;;;7394120;19;20452;-83
2023/08/28 05:54:39;;;;;;;5.93;2.40;;;;;11.40;93632.00;;;;7393397;19;20124;-85
2023/08/28 05:57:08;;;;;;;5.72;2.67;;;;;11.30;93632.00;;;;7394862;19;20129;-84
2023/08/28 05:59:42;;;;;;;5.78;2.83;;;;;11.50;93638.00;;;;7392264;19;20194;-83
2023/08/28 06:02:17;;;;;;;3.95;2.53;;;;;11.40;93629.00;;;;7393373;19;21147;-83
2023/08/28 06:04:53;;;;;;;5.55;2.90;;;;;11.40;93629.00;;;;7394015;19;20129;-83
2023/08/28 06:07:29;;;;;;;3.85;2.90;;;;;11.50;93631.00;;;;7394737;19;20612;-83
2023/08/28 06:10:19;;;;;;;4.85;2.60;;;;;11.50;93624.00;;;;7389993;19;20148;-83
2023/08/28 06:12:53;;;;;;;5.22;2.97;;;;;11.60;93622.00;;;;7390694;19;20163;-83
2023/08/28 06:15:28;;;;;;;4.20;2.75;;;;;11.50;93611.00;;;;7392629;19;20577;-82
2023/08/28 06:17:56;;;;;;;4.07;2.40;;;;;11.60;93603.00;;;;7393833;19;20156;-84
2023/08/28 06:20:32;;;;;;;4.95;2.78;;;;;11.60;93600.00;;;;7392937;19;20133;-87
2023/08/28 06:23:01;;;;;;;6.32;2.70;;;;;11.60;93585.00;;;;7395244;19;20141;-87
2023/08/28 06:25:37;;;;;;;6.88;2.53;;;;;11.50;93588.00;;;;7392866;19;20164;-87
2023/08/28 06:28:05;;;;;;;2.78;2.00;;;;;11.60;93575.00;;;;7397120;19;20526;-86
2023/08/28 06:30:33;;;;;;;4.55;2.60;;;;;11.70;93564.00;;;;7389174;19;20156;-86
2023/08/28 06:33:27;;;;;;;4.43;2.50;;;;;11.70;93561.00;;;;6921889;19;9719507;-79
2023/08/28 06:36:02;;;;;;;5.65;2.30;;;;;11.90;93565.00;;;;7417407;19;20159;-79
2023/08/28 06:38:36;;;;;;;4.45;2.67;;;;;12.00;93564.00;;;;7420438;19;20132;-80
2023/08/28 06:41:04;;;;;;;4.40;2.60;;;;;12.00;93577.00;;;;7418062;19;20155;-79
2023/08/28 06:43:38;;;;;;;4.68;2.15;;;;;12.10;93586.00;;;;7417713;19;20147;-80
2023/08/28 06:46:12;;;;;;;3.95;2.40;;;;;12.10;93584.00;;;;7420584;19;20152;-82
2023/08/28 06:48:48;;;;;;;3.92;2.25;;;;;12.20;93566.00;;;;7418065;19;20583;-79
2023/08/28 06:51:15;;;;;;;4.05;2.28;;;;;12.30;93569.00;;;;7417293;19;20223;-79
2023/08/28 06:53:50;;;;;;;4.63;1.95;;;;;12.30;93573.00;;;;7414922;19;20590;-79
2023/08/28 06:56:19;;;;;;;4.95;2.35;;;;;12.40;93572.00;;;;7416694;19;20746;-79
2023/08/28 06:58:54;;;;;;;4.05;2.00;;;;;12.70;93587.00;;;;7417757;19;20136;-78
2023/08/28 07:01:22;;;;;;;7.07;2.35;;;;;12.70;93575.00;;;;7414398;19;20211;-77
2023/08/28 07:03:50;;;;;;;3.53;2.25;;;;;12.70;93573.00;;;;7415534;19;20169;-79
2023/08/28 07:06:23;;;;;;;5.22;2.30;;;;;12.80;93571.00;;;;7415226;19;20132;-78
2023/08/28 07:08:57;;;;;;;3.92;2.30;;;;;12.80;93563.00;;;;7414258;19;20148;-77
2023/08/28 07:11:31;;;;;;;2.58;1.90;;;;;12.80;93563.00;;;;7415569;19;20525;-78
2023/08/28 07:14:02;;;;;;;5.03;2.22;;;;;12.80;93561.00;;;;7413482;19;20500;-77
2023/08/28 07:16:30;;;;;;;4.88;2.03;;;;;12.90;93572.00;;;;7414951;19;20156;-78
2023/08/28 07:19:07;;;;;;;2.50;1.73;;;;;13.10;93573.00;;;;7416110;19;20148;-79
2023/08/28 07:21:41;;;;;;;3.63;2.40;;;;;13.10;93601.00;;;;7412853;19;20136;-78
2023/08/28 07:24:15;;;;;;;2.42;2.22;;;;;13.10;93609.00;;;;7414043;19;20131;-79
2023/08/28 07:26:49;;;;;;;2.78;2.28;;;;;13.20;93593.00;;;;7415955;19;20148;-78
2023/08/28 07:29:18;;;;;;;3.83;2.20;;;;;13.20;93590.00;;;;7417414;19;20222;-78
2023/08/28 07:32:05;;;;;;;5.22;2.17;;;;;13.20;93594.00;;;;7416226;19;20163;-77
2023/08/28 07:34:40;;;;;;;7.70;2.50;;;;;13.20;93607.00;;;;7415743;19;20160;-79
2023/08/28 07:37:14;;;;;;;3.60;2.08;;;;;13.10;93590.00;;;;7417052;19;20147;-78
2023/08/28 07:39:42;;;;;;;4.53;2.20;;;;;13.20;93565.00;;;;7418261;19;20180;-78
2023/08/28 07:42:16;;;;;;;2.03;1.80;;;;;13.30;93566.00;;;;7417919;19;20159;-78
2023/08/28 07:44:44;;;;;;;4.18;2.47;;;;;13.60;93554.00;;;;7385632;19;20149;-78
2023/08/28 07:47:19;;;;;;;2.88;2.35;;;;;13.70;93553.00;;;;7387986;19;20717;-78
2023/08/28 07:49:47;;;;;;;2.22;2.03;;;;;13.70;93578.00;;;;7387342;19;20691;-79
2023/08/28 07:52:23;;;;;;;3.33;2.88;;;;;13.70;93589.00;;;;7389174;19;20136;-81
2023/08/28 07:54:51;;;;;;;4.25;2.55;;;;;13.40;93588.00;;;;7388057;19;20647;-80
2023/08/28 07:57:25;;;;;;;6.00;2.28;;;;;13.50;93577.00;;;;7389510;19;20160;-79
2023/08/28 07:59:53;;;;;;;4.65;2.88;;;;;13.20;93574.00;;;;7388831;19;20208;-76
2023/08/28 08:02:30;;;;;;;3.88;2.55;;;;;13.50;93596.00;;;;7387502;19;20504;-78
2023/08/28 08:04:57;;;;;;;5.45;2.50;;;;;13.40;93603.00;;;;7389494;19;20133;-77
2023/08/28 08:07:34;;;;;;;4.65;2.60;;;;;13.20;93599.00;;;;7390299;19;20161;-78
2023/08/28 08:10:02;;;;;;;3.90;2.65;;;;;13.30;93594.00;;;;7392167;19;20233;-78
2023/08/28 08:12:42;;;;;;;3.28;2.60;;;;;13.20;93603.00;;;;7393163;19;20215;-77
2023/08/28 08:15:11;;;;;;;4.53;2.65;;;;;13.40;93617.00;;;;7389819;19;20141;-77
2023/08/28 08:17:44;;;;;;;3.72;2.50;;;;;13.40;93616.00;;;;7389193;19;20142;-77
2023/08/28 08:20:12;;;;;;;3.42;2.40;;;;;13.40;93615.00;;;;7389180;19;20156;-76
2023/08/28 08:22:46;;;;;;;5.95;2.58;;;;;13.20;93613.00;;;;7389713;19;20215;-76
2023/08/28 08:25:17;;;;;;;3.63;2.40;;;;;13.10;93610.00;;;;7386863;19;20155;-76
2023/08/28 08:27:53;;;;;;;3.83;2.42;;;;;13.10;93624.00;;;;7388907;19;20629;-75
2023/08/28 08:30:23;;;;;;;3.58;2.83;;;;;13.00;93639.00;;;;7387743;19;20141;-76
2023/08/28 08:32:51;;;;;;;3.97;3.00;;;;;13.00;93647.00;;;;7386738;19;20184;-75
2023/08/28 08:35:25;;;;;;;4.30;2.80;;;;;13.00;93640.00;;;;7389126;19;20458;-76
2023/08/28 08:37:53;;;;;;;5.45;2.53;;;;;13.20;93630.00;;;;7386992;19;20513;-75
2023/08/28 08:40:27;;;;;;;3.88;2.85;;;;;13.30;93640.00;;;;7386651;19;20144;-76
2023/08/28 08:42:56;;;;;;;3.28;2.67;;;;;13.20;93645.00;;;;7387060;19;20145;-75
2023/08/28 08:45:41;;;;;;;4.82;2.55;;;;;13.40;93632.00;;;;7388965;19;20497;-77
2023/08/28 08:48:29;;;;;;;4.72;2.95;;;;;13.30;93625.00;;;;7390274;19;20125;-76
2023/08/28 08:51:06;;;;;;;7.32;3.28;;;;;13.50;93625.00;;;;7388723;19;20264;-75
2023/08/28 08:53:53;;;;;;;4.47;3.10;;;;;13.30;93627.00;;;;7388466;19;20264;-75
2023/08/28 08:56:23;;;;;;;5.57;3.60;;;;;13.10;93629.00;;;;7385377;19;20147;-75
2023/08/28 08:58:59;;;;;;;3.50;3.20;;;;;13.30;93626.00;;;;7386096;19;20472;-75
2023/08/28 09:01:28;;;;;;;6.88;3.38;;;;;13.60;93617.00;;;;7384493;19;20192;-75
2023/08/28 09:04:04;;;;;;;4.88;3.15;;;;;13.70;93620.00;;;;7386214;19;20133;-75
2023/08/28 09:06:40;;;;;;;3.60;3.30;;;;;14.00;93613.00;;;;7387050;19;20160;-76
2023/08/28 09:09:16;;;;;;;5.25;3.67;;;;;14.20;93622.00;;;;7386795;19;20637;-78
2023/08/28 09:11:50;;;;;;;5.53;3.47;;;;;14.10;93633.00;;;;7384604;19;20481;-79
2023/08/28 09:14:28;;;;;;;3.78;3.22;;;;;14.10;93628.00;;;;7387104;19;20152;-81
2023/08/28 09:17:05;;;;;;;3.78;3.20;;;;;14.10;93623.00;;;;7381818;19;20164;-79
2023/08/28 09:19:35;;;;;;;6.97;3.80;;;;;14.40;93627.00;;;;7386708;19;20148;-79
2023/08/28 09:22:13;;;;;;;4.55;3.63;;;;;14.40;93642.00;;;;7385408;19;20152;-80
2023/08/28 09:24:51;;;;;;;7.50;4.60;;;;;14.20;93636.00;;;;7387085;19;21060;-79
2023/08/28 09:27:25;;;;;;;6.13;4.45;;;;;14.40;93638.00;;;;7386220;19;20141;-80
2023/08/28 09:29:59;;;;;;;5.20;4.10;;;;;14.10;93634.00;;;;7388070;19;20167;-81
2023/08/28 09:32:33;;;;;;;4.70;3.85;;;;;14.10;93635.00;;;;7390264;19;20163;-81
2023/08/28 09:35:15;;;;;;;4.85;4.32;;;;;14.20;93621.00;;;;7394753;19;20136;-77
2023/08/28 09:37:43;;;;;;;5.80;4.20;;;;;14.20;93625.00;;;;7391866;19;20615;-80
2023/08/28 09:40:31;;;;;;;7.68;3.90;;;;;14.30;93618.00;;;;7390969;19;20140;-82
2023/08/28 09:43:00;;;;;;;4.93;3.60;;;;;14.10;93613.00;;;;7387750;19;20152;-78
2023/08/28 09:45:34;;;;;;;5.03;3.53;;;;;14.40;93608.00;;;;7385039;19;22105;-78
2023/08/28 09:48:05;;;;;;;3.72;3.35;;;;;14.40;93584.00;;;;7388154;19;20144;-80
2023/08/28 09:50:42;;;;;;;4.93;3.15;;;;;15.00;93582.00;;;;7384219;19;20145;-77
2023/08/28 09:53:11;;;;;;;3.13;2.83;;;;;14.70;93575.00;;;;7387904;19;20152;-83
2023/08/28 09:55:46;;;;;;;3.08;2.45;;;;;15.00;93570.00;;;;7382095;19;20725;-80
2023/08/28 09:58:30;;;;;;;3.67;2.50;;;;;15.00;93562.00;;;;7389743;19;20560;-78
2023/08/28 10:01:04;;;;;;;4.43;2.10;;;;;15.30;93563.00;;;;7385349;19;20612;-79
2023/08/28 10:03:33;;;;;;;3.95;2.63;;;;;15.60;93564.00;;;;7385602;19;20188;-81
2023/08/28 10:06:07;;;;;;;3.28;2.20;;;;;15.40;93554.00;;;;7384565;19;20161;-78
2023/08/28 10:08:35;;;;;;;2.88;2.03;;;;;15.70;93544.00;;;;7385281;19;20140;-81
2023/08/28 10:11:11;;;;;;;3.20;1.95;;;;;15.60;93546.00;;;;7388848;19;20215;-85
2023/08/28 10:13:45;;;;;;;2.80;1.80;;;;;15.80;93541.00;;;;7387693;19;20151;-85
2023/08/28 10:16:24;;;;;;;1.70;1.60;;;;;16.00;93544.00;;;;7390781;19;20164;-84
2023/08/28 10:19:11;;;;;;;3.15;1.80;;;;;16.00;93549.00;;;;7389183;19;20512;-81
2023/08/28 10:21:47;;;;;;;1.60;1.50;;;;;15.70;93541.00;;;;7384434;19;20153;-80
2023/08/28 10:24:24;;;;;;;1.73;1.63;;;;;15.90;93541.00;;;;7383569;19;20128;-80
2023/08/28 10:26:54;;;;;;;2.33;1.77;;;;;16.30;93544.00;;;;7384174;19;20147;-79
2023/08/28 10:29:36;;;;;;;6.47;1.50;;;;;16.80;93539.00;;;;7386360;19;20120;-80
2023/08/28 10:32:09;;;;;;;1.73;1.40;;;;;16.80;93540.00;;;;7388109;19;20184;-79
2023/08/28 10:34:53;;;;;;;2.85;1.17;;;;;17.00;93546.00;;;;7383353;19;20279;-79
2023/08/28 10:37:22;;;;;;;4.90;1.30;;;;;17.00;93536.00;;;;7383492;19;20148;-79
2023/08/28 10:39:58;;;;;;;2.28;1.40;;;;;17.10;93527.00;;;;7384114;19;20147;-79
2023/08/28 10:42:34;;;;;;;4.20;1.27;;;;;17.50;93519.00;;;;7384662;19;20143;-80
2023/08/28 10:45:02;;;;;;;1.98;1.27;;;;;17.30;93523.00;;;;7383106;19;20148;-78
2023/08/28 10:47:39;;;;;;;1.48;1.27;;;;;17.00;93524.00;;;;7383201;19;20580;-79
2023/08/28 10:50:07;;;;;;;1.58;1.30;;;;;17.00;93514.00;;;;7380453;19;20596;-80
2023/08/28 10:52:47;;;;;;;1.92;1.52;;;;;17.50;93520.00;;;;7381698;19;20154;-78
2023/08/28 10:55:19;;;;;;;1.40;1.17;;;;;17.60;93512.00;;;;7379777;19;20149;-79
2023/08/28 10:57:53;;;;;;;1.45;1.30;;;;;17.80;93495.00;;;;7381295;19;20177;-80
2023/08/28 11:00:27;;;;;;;1.67;1.25;;;;;17.90;93513.00;;;;7381705;19;20184;-79
2023/08/28 11:03:09;;;;;;;2.55;1.33;;;;;18.00;93495.00;;;;7384504;19;20164;-79
2023/08/28 11:05:39;;;;;;;2.00;1.30;;;;;18.40;93495.00;;;;7379505;19;20140;-79
2023/08/28 11:08:15;;;;;;;3.20;1.30;;;;;18.50;93491.00;;;;7381683;19;20516;-77
2023/08/28 11:10:45;;;;;;;3.33;1.40;;;;;18.80;93499.00;;;;7378604;19;20152;-78
2023/08/28 11:13:25;;;;;;;1.30;1.20;;;;;19.80;93479.00;;;;7382764;19;20193;-79
2023/08/28 11:16:03;;;;;;;1.48;1.25;;;;;19.60;93484.00;;;;7379749;19;20205;-78
2023/08/28 11:18:39;;;;;;;3.75;1.17;;;;;19.30;93491.00;;;;7383781;19;20619;-78
2023/08/28 11:21:15;;;;;;;2.30;1.15;;;;;19.20;93491.00;;;;7387391;19;20156;-78
2023/08/28 11:23:51;;;;;;;1.77;1.60;;;;;19.40;93494.00;;;;7390256;19;20129;-79
2023/08/28 11:26:30;;;;;;;2.00;1.27;;;;;19.30;93491.00;;;;7385478;19;20159;-80
2023/08/28 11:28:57;;;;;;;3.72;1.13;;;;;18.70;93499.00;;;;7386772;19;20166;-79
2023/08/28 11:31:33;;;;;;;1.35;1.02;;;;;18.70;93502.00;;;;7388123;19;20149;-75
2023/08/28 11:34:17;;;;;;;1.85;1.02;;;;;18.70;93502.00;;;;7388025;19;20128;-75
2023/08/28 11:36:47;;;;;;;2.92;1.10;;;;;18.30;93510.00;;;;7387428;19;20158;-75
2023/08/28 11:39:23;;;;;;;1.45;1.10;;;;;18.30;93499.00;;;;7387379;19;20228;-76
2023/08/28 11:41:57;;;;;;;5.20;1.23;;;;;18.30;93506.00;;;;7388720;19;20136;-77
2023/08/28 11:44:32;;;;;;;3.88;1.05;;;;;18.30;93517.00;;;;7389786;19;20588;-77
2023/08/28 11:47:06;;;;;;;1.90;1.15;;;;;18.50;93517.00;;;;7387496;19;20587;-78
2023/08/28 11:49:44;;;;;;;1.55;1.10;;;;;18.50;93499.00;;;;7385441;19;21006;-77
2023/08/28 11:52:19;;;;;;;1.52;1.10;;;;;18.50;93506.00;;;;7387533;19;20149;-78
2023/08/28 11:55:03;;;;;;;1.83;1.30;;;;;18.40;93499.00;;;;7387146;19;20465;-77
2023/08/28 11:57:38;;;;;;;2.47;1.45;;;;;18.10;93497.00;;;;7385831;19;20205;-75
2023/08/28 12:00:11;;;;;;;1.10;1.00;;;;;18.40;93490.00;;;;7385977;19;20216;-77
2023/08/28 12:02:49;;;;;;;0.90;0.90;;;;;18.60;93494.00;;;;7385671;19;20567;-76
2023/08/28 12:05:25;;;;;;;1.25;1.05;;;;;18.60;93504.00;;;;7385662;19;20244;-78
2023/08/28 12:07:52;;;;;;;1.83;1.25;;;;;18.20;93516.00;;;;7385185;19;20527;-76
2023/08/28 12:10:28;;;;;;;1.40;1.30;;;;;18.10;93518.00;;;;7384735;19;20615;-78
2023/08/28 12:12:56;;;;;;;1.17;1.17;;;;;18.20;93516.00;;;;7383739;19;20148;-77
2023/08/28 12:15:32;;;;;;;1.42;1.33;;;;;17.90;93519.00;;;;7384557;19;20135;-79
2023/08/28 12:18:03;;;;;;;3.92;1.67;;;;;18.10;93528.00;;;;7378152;19;20167;-78
2023/08/28 12:20:39;;;;;;;2.75;1.30;;;;;17.40;93532.00;;;;7384530;19;20144;-78
2023/08/28 12:23:16;;;;;;;1.60;1.23;;;;;16.80;93546.00;;;;7386105;19;20125;-77
2023/08/28 12:25:53;;;;;;;1.50;1.40;;;;;16.70;93541.00;;;;7385175;19;20493;-78
2023/08/28 12:28:30;;;;;;;9.20;1.52;;;;;16.40;93548.00;;;;7384189;19;20194;-79
2023/08/28 12:30:58;;;;;;;5.60;1.70;;;;;16.30;93542.00;;;;7385374;19;20587;-77
2023/08/28 12:33:46;;;;;;;2.08;1.25;;;;;15.60;93543.00;;;;7382376;19;20168;-78
2023/08/28 12:36:47;;;;;;;1.67;1.20;;;;;15.90;93549.00;;;;7385491;19;20145;-79
2023/08/28 12:39:21;;;;;;;3.42;1.52;;;;;15.80;93547.00;;;;7384700;19;20129;-79
2023/08/28 12:41:59;;;;;;;1.85;1.42;;;;;15.90;93544.00;;;;7382953;19;21003;-80
2023/08/28 12:44:27;;;;;;;1.80;1.45;;;;;16.10;93550.00;;;;7384207;19;20224;-79
2023/08/28 12:47:02;;;;;;;1.50;1.30;;;;;16.10;93550.00;;;;7387726;19;20149;-80
2023/08/28 12:49:32;;;;;;;1.60;1.40;;;;;16.20;93552.00;;;;7382450;19;20131;-78
2023/08/28 12:52:00;;;;;;;1.50;1.40;;;;;16.40;93554.00;;;;7385003;19;20152;-78